createdAt,value
2022-07-25T00:01:16.544Z,4.40
2022-07-25T00:03:47.683Z,4.50
2022-07-25T00:06:17.661Z,4.25
2022-07-25T00:08:48.230Z,3.15
2022-07-25T00:11:15.376Z,4.15
2022-07-25T00:13:42.526Z,3.88
2022-07-25T00:16:09.725Z,3.95
2022-07-25T00:18:36.961Z,4.25
2022-07-25T00:21:04.386Z,4.70
2022-07-25T00:23:32.086Z,3.85
2022-07-25T00:25:59.215Z,3.17
2022-07-25T00:28:26.341Z,5.05
2022-07-25T00:30:53.779Z,4.43
2022-07-25T00:33:21.147Z,5.30
2022-07-25T00:35:48.314Z,4.05
2022-07-25T00:38:15.682Z,3.78
2022-07-25T00:40:42.808Z,3.95
2022-07-25T00:43:10.005Z,1.75
2022-07-25T00:45:37.218Z,6.00
2022-07-25T00:48:04.670Z,3.20
2022-07-25T00:50:31.847Z,8.48
2022-07-25T00:52:59.135Z,3.90
2022-07-25T00:55:27.040Z,4.28
2022-07-25T00:57:54.214Z,2.78
2022-07-25T01:00:21.680Z,4.45
2022-07-25T01:02:49.162Z,5.65
2022-07-25T01:05:18.176Z,4.43
2022-07-25T01:07:46.658Z,6.38
2022-07-25T01:10:13.833Z,2.10
2022-07-25T01:12:55.391Z,5.30
2022-07-25T01:15:25.922Z,2.77
2022-07-25T01:17:53.116Z,4.18
2022-07-25T01:20:25.651Z,6.45
2022-07-25T01:22:53.113Z,3.65
2022-07-25T01:25:20.541Z,2.95
2022-07-25T01:27:54.870Z,3.60
2022-07-25T01:30:24.230Z,2.95
2022-07-25T01:32:51.919Z,4.25
2022-07-25T01:35:19.653Z,4.38
2022-07-25T01:37:47.021Z,3.85
2022-07-25T01:40:14.929Z,4.80
2022-07-25T01:42:43.138Z,5.57
2022-07-25T01:45:11.805Z,5.20
2022-07-25T01:47:39.939Z,3.80
2022-07-25T01:50:07.772Z,7.03
2022-07-25T01:52:35.933Z,4.00
2022-07-25T01:55:03.130Z,5.15
2022-07-25T01:57:30.933Z,6.53
2022-07-25T01:59:59.468Z,6.13
2022-07-25T02:02:26.771Z,4.28
2022-07-25T02:04:56.978Z,7.68
2022-07-25T02:07:24.146Z,5.03
2022-07-25T02:09:56.514Z,8.85
2022-07-25T02:12:24.092Z,6.45
2022-07-25T02:14:51.298Z,5.97
2022-07-25T02:17:18.522Z,6.60
2022-07-25T02:19:45.709Z,8.05
2022-07-25T02:22:12.996Z,4.32
2022-07-25T02:24:40.234Z,3.95
2022-07-25T02:27:08.391Z,2.58
2022-07-25T02:29:35.826Z,6.50
2022-07-25T02:32:03.071Z,5.85
2022-07-25T02:34:30.260Z,7.75
2022-07-25T02:36:57.380Z,5.60
2022-07-25T02:39:25.413Z,4.70
2022-07-25T02:41:52.552Z,5.13
2022-07-25T02:44:19.685Z,7.32
2022-07-25T02:46:46.803Z,8.63
2022-07-25T02:49:14.129Z,6.68
2022-07-25T02:51:41.379Z,8.15
2022-07-25T02:54:08.496Z,7.22
2022-07-25T02:56:35.616Z,7.90
2022-07-25T02:59:02.749Z,4.78
2022-07-25T03:01:30.124Z,9.38
2022-07-25T03:03:57.418Z,7.35
2022-07-25T03:06:24.637Z,6.10
2022-07-25T03:08:51.857Z,6.47
2022-07-25T03:11:19.771Z,6.25
2022-07-25T03:13:46.960Z,6.32
2022-07-25T03:16:14.455Z,9.75
2022-07-25T03:18:41.628Z,5.65
2022-07-25T03:21:08.752Z,7.43
2022-07-25T03:23:35.908Z,9.80
2022-07-25T03:26:03.370Z,8.13
2022-07-25T03:28:30.465Z,9.15
2022-07-25T03:30:58.104Z,10.13
2022-07-25T03:33:25.176Z,8.43
2022-07-25T03:35:52.324Z,6.05
2022-07-25T03:38:19.472Z,9.50
2022-07-25T03:40:46.578Z,6.32
2022-07-25T03:43:13.897Z,5.13
2022-07-25T03:45:41.054Z,8.77
2022-07-25T03:48:08.326Z,10.20
2022-07-25T03:50:35.456Z,8.10
2022-07-25T03:53:02.536Z,8.43
2022-07-25T03:55:29.991Z,9.95
2022-07-25T03:57:57.095Z,4.60
2022-07-25T04:00:24.240Z,8.05
2022-07-25T04:02:51.414Z,8.02
2022-07-25T04:05:18.575Z,6.15
2022-07-25T04:07:45.658Z,10.52
2022-07-25T04:10:12.859Z,9.30
2022-07-25T04:12:40.329Z,8.13
2022-07-25T04:15:08.061Z,8.75
2022-07-25T04:17:35.333Z,7.25
2022-07-25T04:20:07.477Z,7.35
2022-07-25T04:22:35.420Z,8.32
2022-07-25T04:25:02.783Z,7.75
2022-07-25T04:27:30.002Z,9.95
2022-07-25T04:29:58.962Z,6.63
2022-07-25T04:32:26.148Z,12.18
2022-07-25T04:34:55.365Z,5.53
2022-07-25T04:37:22.552Z,6.38
2022-07-25T04:39:49.651Z,6.55
2022-07-25T04:42:16.765Z,8.10
2022-07-25T04:44:43.859Z,8.80
2022-07-25T04:47:10.967Z,6.25
2022-07-25T04:49:38.103Z,5.47
2022-07-25T04:52:05.440Z,6.10
2022-07-25T04:54:32.678Z,9.98
2022-07-25T04:57:00.136Z,6.70
2022-07-25T04:59:27.384Z,11.30
2022-07-25T05:01:54.531Z,8.52
2022-07-25T05:04:21.672Z,7.50
2022-07-25T05:06:48.795Z,5.78
2022-07-25T05:09:15.907Z,7.40
2022-07-25T05:11:47.878Z,10.25
2022-07-25T05:14:16.960Z,9.57
2022-07-25T05:16:44.292Z,8.57
2022-07-25T05:19:11.591Z,11.45
2022-07-25T05:21:38.670Z,9.90
2022-07-25T05:24:06.495Z,11.95
2022-07-25T05:26:33.954Z,8.45
2022-07-25T05:29:01.030Z,10.43
2022-07-25T05:31:28.224Z,12.13
2022-07-25T05:33:55.388Z,10.60
2022-07-25T05:36:22.516Z,9.65
2022-07-25T05:38:49.674Z,5.65
2022-07-25T05:41:16.845Z,7.50
2022-07-25T05:43:46.186Z,8.82
2022-07-25T05:46:13.730Z,10.07
2022-07-25T05:48:44.117Z,9.40
2022-07-25T05:51:12.626Z,7.95
2022-07-25T05:53:39.763Z,13.25
2022-07-25T05:56:07.123Z,9.00
2022-07-25T05:58:34.228Z,9.40
2022-07-25T06:01:01.339Z,5.95
2022-07-25T06:03:28.865Z,8.27
2022-07-25T06:05:56.870Z,5.50
2022-07-25T06:08:24.115Z,5.20
2022-07-25T06:10:52.156Z,5.40
2022-07-25T06:13:20.734Z,6.07
2022-07-25T06:15:48.025Z,6.30
2022-07-25T06:18:15.386Z,4.85
2022-07-25T06:20:42.879Z,8.15
2022-07-25T06:23:10.079Z,5.70
2022-07-25T06:25:37.257Z,3.83
2022-07-25T06:28:04.596Z,6.78
2022-07-25T06:30:31.858Z,7.07
2022-07-25T06:32:58.938Z,6.35
2022-07-25T06:35:26.132Z,4.40
2022-07-25T06:37:53.181Z,4.45
2022-07-25T06:40:20.292Z,3.67
2022-07-25T06:42:47.945Z,7.88
2022-07-25T06:45:15.652Z,6.50
2022-07-25T06:47:44.500Z,3.65
2022-07-25T06:50:21.331Z,5.72
2022-07-25T06:52:49.141Z,6.80
2022-07-25T06:55:16.740Z,8.93
2022-07-25T06:57:43.883Z,6.55
2022-07-25T07:00:13.247Z,5.80
2022-07-25T07:02:58.654Z,12.23
2022-07-25T07:05:28.463Z,7.47
2022-07-25T07:07:55.867Z,12.65
2022-07-25T07:10:23.826Z,8.50
2022-07-25T07:13:12.625Z,7.47
2022-07-25T07:15:44.045Z,8.15
2022-07-25T07:18:11.436Z,9.30
2022-07-25T07:20:38.587Z,4.05
2022-07-25T07:23:05.791Z,5.88
2022-07-25T07:25:33.634Z,1.80
2022-07-25T07:28:01.101Z,6.88
2022-07-25T07:30:52.048Z,4.38
2022-07-25T07:33:15.401Z,4.25
2022-07-25T07:35:45.942Z,6.43
2022-07-25T07:38:13.098Z,4.43
2022-07-25T07:40:40.215Z,8.35
2022-07-25T07:43:07.384Z,4.50
2022-07-25T07:45:35.814Z,5.88
2022-07-25T07:48:03.956Z,4.50
2022-07-25T07:50:31.177Z,5.50
2022-07-25T07:52:58.736Z,7.18
2022-07-25T07:55:45.030Z,3.97
2022-07-25T07:58:15.774Z,4.38
2022-07-25T08:00:44.460Z,4.55
2022-07-25T08:03:12.133Z,3.50
2022-07-25T08:05:44.471Z,3.85
2022-07-25T08:10:45.537Z,4.30
2022-07-25T08:13:26.216Z,2.10
2022-07-25T08:15:59.255Z,5.10
2022-07-25T08:18:29.862Z,2.60
2022-07-25T08:20:57.260Z,2.20
2022-07-25T08:23:25.751Z,2.28
2022-07-25T08:25:52.818Z,3.17
2022-07-25T08:28:20.250Z,4.47
2022-07-25T08:30:47.501Z,5.88
2022-07-25T08:33:18.426Z,3.67
2022-07-25T08:35:48.913Z,6.32
2022-07-25T08:38:16.532Z,3.03
2022-07-25T08:40:43.751Z,2.92
2022-07-25T08:43:15.371Z,4.45
2022-07-25T08:45:45.992Z,2.22
2022-07-25T08:48:13.711Z,3.88
2022-07-25T08:50:41.465Z,4.28
2022-07-25T08:55:56.871Z,4.18
2022-07-25T08:58:24.619Z,3.28
2022-07-25T09:00:52.163Z,2.20
2022-07-25T09:03:36.642Z,4.18
2022-07-25T09:06:22.948Z,4.65
2022-07-25T09:08:59.065Z,3.67
2022-07-25T09:11:37.934Z,5.65
2022-07-25T09:14:09.536Z,3.75
2022-07-25T09:16:44.383Z,4.28
2022-07-25T09:19:15.763Z,5.65
2022-07-25T09:21:45.450Z,4.20
2022-07-25T09:24:18.074Z,2.28
2022-07-25T09:29:30.852Z,1.60
2022-07-25T09:32:00.215Z,2.43
2022-07-25T09:34:39.848Z,1.98
2022-07-25T09:37:09.574Z,3.50
2022-07-25T09:39:46.009Z,3.38
2022-07-25T09:42:19.985Z,3.22
2022-07-25T09:45:13.176Z,5.43
2022-07-25T09:47:51.478Z,2.90
2022-07-25T09:50:19.743Z,4.68
2022-07-25T09:52:47.486Z,2.45
2022-07-25T09:55:15.769Z,3.17
2022-07-25T09:57:45.110Z,3.10
2022-07-25T10:00:19.205Z,1.85
2022-07-25T10:02:55.843Z,3.85
2022-07-25T10:05:41.443Z,2.90
2022-07-25T10:08:08.980Z,1.65
2022-07-25T10:10:41.580Z,4.78
2022-07-25T10:13:14.164Z,3.45
2022-07-25T10:15:45.170Z,5.47
2022-07-25T10:18:14.215Z,3.03
2022-07-25T10:20:41.783Z,6.22
2022-07-25T10:23:24.407Z,2.28
2022-07-25T10:26:04.500Z,1.20
2022-07-25T10:28:45.041Z,2.08
2022-07-25T10:31:44.882Z,1.05
2022-07-25T10:37:12.270Z,2.72
2022-07-25T10:39:44.789Z,1.92
2022-07-25T10:42:17.229Z,1.08
2022-07-25T10:44:47.681Z,1.45
2022-07-25T10:47:15.779Z,3.75
2022-07-25T10:50:06.852Z,1.20
2022-07-25T10:52:40.125Z,0.60
2022-07-25T10:55:07.739Z,2.47
2022-07-25T10:57:34.941Z,4.18
2022-07-25T11:00:06.635Z,2.22
2022-07-25T11:02:34.363Z,1.33
2022-07-25T11:05:03.858Z,4.53
2022-07-25T11:07:37.274Z,1.92
2022-07-25T11:10:06.159Z,2.85
2022-07-25T11:12:33.547Z,2.13
2022-07-25T11:15:08.461Z,2.65
2022-07-25T11:17:35.742Z,1.60
2022-07-25T11:20:11.853Z,2.25
2022-07-25T11:22:39.680Z,1.90
2022-07-25T11:25:14.413Z,3.75
2022-07-25T11:27:41.798Z,2.63
2022-07-25T11:30:14.868Z,2.50
2022-07-25T11:32:51.116Z,0.82
2022-07-25T11:35:23.913Z,1.25
2022-07-25T11:37:52.421Z,1.98
2022-07-25T11:40:20.659Z,3.13
2022-07-25T11:42:50.638Z,1.13
2022-07-25T11:45:18.725Z,3.70
2022-07-25T11:47:48.432Z,3.50
2022-07-25T11:50:16.175Z,2.17
2022-07-25T11:52:45.684Z,3.28
2022-07-25T11:55:17.143Z,2.40
2022-07-25T11:57:46.489Z,3.40
2022-07-25T12:00:22.186Z,2.45
2022-07-25T12:02:50.303Z,2.42
2022-07-25T12:05:21.074Z,2.13
2022-07-25T12:07:53.205Z,2.40
2022-07-25T12:12:52.626Z,1.80
2022-07-25T12:15:32.365Z,2.58
2022-07-25T12:18:01.941Z,1.90
2022-07-25T12:20:33.645Z,1.50
2022-07-25T12:23:05.302Z,0.98
2022-07-25T12:25:33.613Z,1.95
2022-07-25T12:28:01.182Z,1.75
2022-07-25T12:30:29.563Z,2.95
2022-07-25T12:32:58.747Z,2.10
2022-07-25T12:35:26.373Z,4.25
2022-07-25T12:37:54.174Z,2.20
2022-07-25T12:40:21.974Z,3.30
2022-07-25T12:42:49.766Z,1.60
2022-07-25T12:45:17.999Z,1.67
2022-07-25T12:47:46.476Z,3.10
2022-07-25T12:50:15.689Z,3.63
2022-07-25T12:52:44.718Z,1.58
2022-07-25T12:55:17.807Z,3.13
2022-07-25T12:57:46.406Z,0.70
2022-07-25T13:00:15.962Z,1.92
2022-07-25T13:02:44.139Z,0.30
2022-07-25T13:05:12.022Z,0.63
2022-07-25T13:07:39.999Z,0.75
2022-07-25T13:10:07.761Z,2.45
2022-07-25T13:12:35.104Z,1.40
2022-07-25T13:15:02.896Z,0.57
2022-07-25T13:17:31.370Z,0.20
2022-07-25T13:19:59.236Z,2.05
2022-07-25T13:22:27.051Z,2.70
2022-07-25T13:24:54.495Z,6.28
2022-07-25T13:27:22.769Z,3.22
2022-07-25T13:29:57.836Z,3.45
2022-07-25T13:32:26.763Z,0.93
2022-07-25T13:34:54.130Z,1.88
2022-07-25T13:37:21.794Z,3.25
2022-07-25T13:39:49.492Z,0.90
2022-07-25T13:42:17.024Z,1.42
2022-07-25T13:44:44.229Z,3.20
2022-07-25T13:47:11.527Z,0.38
2022-07-25T13:49:38.907Z,1.33
2022-07-25T13:52:06.460Z,0.90
2022-07-25T13:54:33.765Z,2.08
2022-07-25T13:57:03.585Z,0.73
2022-07-25T13:59:30.871Z,0.77
2022-07-25T14:01:58.225Z,2.45
2022-07-25T14:04:25.537Z,0.82
2022-07-25T14:06:52.881Z,2.58
2022-07-25T14:09:21.301Z,0.70
2022-07-25T14:11:48.898Z,2.05
2022-07-25T14:14:16.334Z,1.50
2022-07-25T14:16:43.822Z,2.17
2022-07-25T14:19:11.036Z,5.05
2022-07-25T14:21:38.495Z,2.10
2022-07-25T14:24:06.275Z,2.35
2022-07-25T14:26:34.988Z,0.73
2022-07-25T14:29:03.143Z,1.50
2022-07-25T14:31:32.111Z,1.52
2022-07-25T14:33:59.381Z,3.63
2022-07-25T14:36:26.635Z,2.63
2022-07-25T14:38:53.830Z,3.20
2022-07-25T14:41:21.071Z,1.33
2022-07-25T14:43:48.353Z,2.50
2022-07-25T14:46:15.945Z,2.60
2022-07-25T14:48:43.364Z,1.20
2022-07-25T14:51:11.047Z,1.52
2022-07-25T14:53:38.228Z,1.73
2022-07-25T14:56:06.499Z,1.50
2022-07-25T14:58:34.279Z,1.15
2022-07-25T15:01:01.842Z,4.25
2022-07-25T15:03:29.099Z,0.98
2022-07-25T15:05:56.507Z,2.70
2022-07-25T15:08:23.928Z,2.08
2022-07-25T15:10:51.087Z,4.18
2022-07-25T15:13:31.074Z,2.08
2022-07-25T15:15:59.472Z,1.10
2022-07-25T15:18:26.673Z,3.13
2022-07-25T15:20:55.372Z,1.38
2022-07-25T15:23:25.018Z,2.60
2022-07-25T15:26:08.671Z,2.50
2022-07-25T15:28:37.726Z,1.08
2022-07-25T15:31:05.791Z,3.45
2022-07-25T15:33:33.590Z,2.42
2022-07-25T15:36:01.086Z,1.98
2022-07-25T15:38:29.198Z,1.55
2022-07-25T15:40:57.227Z,2.25
2022-07-25T15:43:25.351Z,3.13
2022-07-25T15:45:52.744Z,1.50
2022-07-25T15:48:20.366Z,0.88
2022-07-25T15:50:51.628Z,1.35
2022-07-25T15:53:19.110Z,2.00
2022-07-25T15:55:46.323Z,2.10
2022-07-25T15:58:13.866Z,2.15
2022-07-25T16:00:42.763Z,1.55
2022-07-25T16:03:11.188Z,4.38
2022-07-25T16:05:39.685Z,1.75
2022-07-25T16:08:11.091Z,2.28
2022-07-25T16:10:38.602Z,2.40
2022-07-25T16:13:06.013Z,4.35
2022-07-25T16:15:33.295Z,4.82
2022-07-25T16:18:02.864Z,1.27
2022-07-25T16:20:32.130Z,1.88
2022-07-25T16:23:00.459Z,2.13
2022-07-25T16:25:28.623Z,1.65
2022-07-25T16:27:56.571Z,2.75
2022-07-25T16:30:23.816Z,3.10
2022-07-25T16:32:51.046Z,1.90
2022-07-25T16:35:18.351Z,2.67
2022-07-25T16:37:45.646Z,6.20
2022-07-25T16:40:14.112Z,1.95
2022-07-25T16:42:41.465Z,2.28
2022-07-25T16:45:09.501Z,2.25
2022-07-25T16:47:37.097Z,0.90
2022-07-25T16:50:04.854Z,3.22
2022-07-25T16:52:32.170Z,1.02
2022-07-25T16:54:59.533Z,1.73
2022-07-25T16:57:26.682Z,1.27
2022-07-25T16:59:53.843Z,2.15
2022-07-25T17:02:26.118Z,1.10
2022-07-25T17:04:56.311Z,1.98
2022-07-25T17:07:23.526Z,2.35
2022-07-25T17:09:50.711Z,2.78
2022-07-25T17:12:18.544Z,0.65
2022-07-25T17:14:46.232Z,1.40
2022-07-25T17:17:13.799Z,2.10
2022-07-25T17:19:41.028Z,3.88
2022-07-25T17:22:09.355Z,1.52
2022-07-25T17:24:38.236Z,3.17
2022-07-25T17:27:06.999Z,2.22
2022-07-25T17:29:34.406Z,3.85
2022-07-25T17:32:02.044Z,1.58
2022-07-25T17:34:29.228Z,1.60
2022-07-25T17:36:57.287Z,3.70
2022-07-25T17:39:25.411Z,0.75
2022-07-25T17:41:52.660Z,1.75
2022-07-25T17:44:20.408Z,2.17
2022-07-25T17:46:50.124Z,3.22
2022-07-25T17:49:17.694Z,3.63
2022-07-25T17:51:45.057Z,4.40
2022-07-25T17:54:12.256Z,1.55
2022-07-25T17:56:39.605Z,1.48
2022-07-25T17:59:08.289Z,2.42
2022-07-25T18:01:35.581Z,2.38
2022-07-25T18:04:03.256Z,3.40
2022-07-25T18:06:30.639Z,1.77
2022-07-25T18:08:58.120Z,1.10
2022-07-25T18:11:25.402Z,6.53
2022-07-25T18:13:52.575Z,1.20
2022-07-25T18:16:19.807Z,0.57
2022-07-25T18:18:46.966Z,1.73
2022-07-25T18:21:14.111Z,2.17
2022-07-25T18:23:41.222Z,0.40
2022-07-25T18:26:09.238Z,1.65
2022-07-25T18:28:36.560Z,1.55
2022-07-25T18:31:04.617Z,1.83
2022-07-25T18:33:31.951Z,1.90
2022-07-25T18:36:01.900Z,0.70
2022-07-25T18:38:32.726Z,1.65
2022-07-25T18:41:26.483Z,1.85
2022-07-25T18:43:48.761Z,3.22
2022-07-25T18:46:16.501Z,0.77
2022-07-25T18:48:45.107Z,1.88
2022-07-25T18:51:12.346Z,1.67
2022-07-25T18:53:39.497Z,2.00
2022-07-25T18:56:07.393Z,0.70
2022-07-25T18:58:34.928Z,3.28
2022-07-25T19:01:05.170Z,2.72
2022-07-25T19:03:34.126Z,0.85
2022-07-25T19:06:03.643Z,1.20
2022-07-25T19:08:31.186Z,1.00
2022-07-25T19:10:58.289Z,3.42
2022-07-25T19:13:47.562Z,2.92
2022-07-25T19:16:12.976Z,1.67
2022-07-25T19:18:40.697Z,2.45
2022-07-25T19:21:08.090Z,1.40
2022-07-25T19:23:35.295Z,2.35
2022-07-25T19:26:03.254Z,1.52
2022-07-25T19:28:30.690Z,1.45
2022-07-25T19:30:57.892Z,1.77
2022-07-25T19:33:25.444Z,3.28
2022-07-25T19:36:02.513Z,2.08
2022-07-25T19:38:29.829Z,1.08
2022-07-25T19:40:57.000Z,1.92
2022-07-25T19:43:24.392Z,1.95
2022-07-25T19:45:52.386Z,1.33
2022-07-25T19:48:24.002Z,1.85
2022-07-25T19:50:52.315Z,1.85
2022-07-25T19:53:19.564Z,1.27
2022-07-25T19:55:46.801Z,0.90
2022-07-25T19:58:13.976Z,0.93
2022-07-25T20:00:41.366Z,0.82
2022-07-25T20:03:09.145Z,0.93
2022-07-25T20:05:36.492Z,1.45
2022-07-25T20:08:04.004Z,1.05
2022-07-25T20:10:31.197Z,1.85
2022-07-25T20:13:01.455Z,0.93
2022-07-25T20:15:29.152Z,0.98
2022-07-25T20:17:56.945Z,0.73
2022-07-25T20:20:25.347Z,2.28
2022-07-25T20:22:52.885Z,1.90
2022-07-25T20:25:20.354Z,0.50
2022-07-25T20:27:49.858Z,3.33
2022-07-25T20:30:17.684Z,0.70
2022-07-25T20:32:44.878Z,0.82
2022-07-25T20:35:12.077Z,1.20
2022-07-25T20:37:39.711Z,1.75
2022-07-25T20:40:07.497Z,1.33
2022-07-25T20:42:36.849Z,2.63
2022-07-25T20:45:07.915Z,0.70
2022-07-25T20:47:35.187Z,1.33
2022-07-25T20:50:02.711Z,0.75
2022-07-25T20:52:30.418Z,1.25
2022-07-25T20:54:57.811Z,2.17
2022-07-25T20:57:25.055Z,5.72
2022-07-25T20:59:52.248Z,0.82
2022-07-25T21:02:19.624Z,6.28
2022-07-25T21:04:48.537Z,1.00
2022-07-25T21:07:18.787Z,1.42
2022-07-25T21:09:46.082Z,0.77
2022-07-25T21:12:13.341Z,1.98
2022-07-25T21:14:40.501Z,1.23
2022-07-25T21:17:08.824Z,1.95
2022-07-25T21:19:35.972Z,1.13
2022-07-25T21:22:04.045Z,0.80
2022-07-25T21:24:32.246Z,1.30
2022-07-25T21:26:59.469Z,2.88
2022-07-25T21:29:26.662Z,2.63
2022-07-25T21:31:54.352Z,2.75
2022-07-25T21:34:24.664Z,7.88
2022-07-25T21:36:51.853Z,1.60
2022-07-25T21:39:19.137Z,1.67
2022-07-25T21:41:46.634Z,1.88
2022-07-25T21:44:13.974Z,2.65
2022-07-25T21:46:41.123Z,1.05
2022-07-25T21:49:41.064Z,3.03
2022-07-25T21:52:08.951Z,0.80
2022-07-25T21:57:13.748Z,1.58
2022-07-25T21:59:42.923Z,7.05
2022-07-25T22:02:10.510Z,2.05
2022-07-25T22:04:38.150Z,1.92
2022-07-25T22:07:05.772Z,5.15
2022-07-25T22:09:32.930Z,2.13
2022-07-25T22:12:00.237Z,2.47
2022-07-25T22:14:27.483Z,4.30
2022-07-25T22:16:54.947Z,1.85
2022-07-25T22:19:22.736Z,2.03
2022-07-25T22:21:50.841Z,1.65
2022-07-25T22:24:18.079Z,1.42
2022-07-25T22:26:45.627Z,1.58
2022-07-25T22:29:12.974Z,3.65
2022-07-25T22:31:40.471Z,1.25
2022-07-25T22:34:07.704Z,2.88
2022-07-25T22:36:34.868Z,2.42
2022-07-25T22:39:01.956Z,3.88
2022-07-25T22:41:29.110Z,2.08
2022-07-25T22:43:59.683Z,5.45
2022-07-25T22:46:29.509Z,2.78
2022-07-25T22:48:57.690Z,2.08
2022-07-25T22:51:25.517Z,2.92
2022-07-25T22:53:53.259Z,3.90
2022-07-25T22:56:20.960Z,3.60
2022-07-25T22:58:49.076Z,3.35
2022-07-25T23:01:20.419Z,2.92
2022-07-25T23:03:50.133Z,4.53
2022-07-25T23:06:18.931Z,3.90
2022-07-25T23:08:46.569Z,2.78
2022-07-25T23:11:14.177Z,3.88
2022-07-25T23:13:41.259Z,3.08
2022-07-25T23:16:10.396Z,2.50
2022-07-25T23:18:38.422Z,2.63
2022-07-25T23:21:05.979Z,2.08
2022-07-25T23:23:33.687Z,5.00
2022-07-25T23:26:01.239Z,2.38
2022-07-25T23:28:29.407Z,2.58
2022-07-25T23:30:56.558Z,3.13
2022-07-25T23:33:25.135Z,1.23
2022-07-25T23:35:52.965Z,2.88
2022-07-25T23:38:20.357Z,5.40
2022-07-25T23:40:47.581Z,1.48
2022-07-25T23:43:15.140Z,2.22
2022-07-25T23:45:50.677Z,2.78
2022-07-25T23:48:18.216Z,3.78
2022-07-25T23:50:45.437Z,3.55
2022-07-25T23:53:12.568Z,6.35
2022-07-25T23:55:39.697Z,2.20
2022-07-25T23:58:06.984Z,5.00
